createdAt,value
2019-02-18T00:01:21.520Z,4.03
2019-02-18T00:06:41.396Z,6.80
2019-02-18T00:12:00.551Z,4.53
2019-02-18T00:17:20.020Z,9.70
2019-02-18T00:22:39.440Z,4.17
2019-02-18T00:27:59.383Z,14.97
2019-02-18T00:33:18.528Z,3.77
2019-02-18T00:38:37.799Z,3.07
2019-02-18T00:43:57.761Z,2.50
2019-02-18T00:49:17.320Z,8.93
2019-02-18T00:54:36.909Z,3.10
2019-02-18T00:59:56.368Z,3.10
2019-02-18T01:05:15.610Z,3.03
2019-02-18T01:10:35.469Z,3.87
2019-02-18T01:15:55.381Z,2.30
2019-02-18T01:21:14.770Z,1.77
2019-02-18T01:26:34.141Z,2.10
2019-02-18T01:31:55.157Z,3.77
2019-02-18T01:37:15.076Z,4.67
2019-02-18T01:42:34.808Z,2.20
2019-02-18T01:47:55.054Z,2.20
2019-02-18T01:53:14.160Z,1.60
2019-02-18T01:58:33.208Z,1.37
2019-02-18T02:03:52.427Z,2.40
2019-02-18T02:09:12.779Z,4.77
2019-02-18T02:14:33.332Z,5.70
2019-02-18T02:19:52.887Z,3.07
2019-02-18T02:25:12.344Z,2.87
2019-02-18T02:30:32.709Z,1.50
2019-02-18T02:35:52.800Z,1.20
2019-02-18T02:41:12.407Z,1.63
2019-02-18T02:46:33.075Z,1.63
2019-02-18T02:51:52.160Z,1.37
2019-02-18T02:57:11.448Z,2.13
2019-02-18T03:02:30.561Z,2.20
2019-02-18T03:07:49.795Z,1.90
2019-02-18T03:13:09.666Z,1.70
2019-02-18T03:18:30.579Z,1.70
2019-02-18T03:23:50.228Z,1.50
2019-02-18T03:29:59.852Z,1.90
2019-02-18T03:35:20.068Z,1.63
2019-02-18T03:40:39.355Z,1.70
2019-02-18T03:45:58.952Z,1.53
2019-02-18T03:51:18.225Z,1.40
2019-02-18T03:56:38.528Z,1.90
2019-02-18T04:01:57.584Z,1.60
2019-02-18T04:07:17.296Z,1.97
2019-02-18T04:12:37.447Z,2.20
2019-02-18T04:17:56.808Z,1.80
2019-02-18T04:23:17.125Z,3.90
2019-02-18T04:28:36.285Z,3.50
2019-02-18T04:33:55.434Z,3.13
2019-02-18T04:39:14.906Z,4.03
2019-02-18T04:44:34.209Z,2.10
2019-02-18T04:49:53.389Z,1.97
2019-02-18T04:55:13.092Z,2.30
2019-02-18T05:00:32.388Z,2.40
2019-02-18T05:05:52.362Z,4.50
2019-02-18T05:11:12.443Z,1.93
2019-02-18T05:16:31.979Z,2.30
2019-02-18T05:21:51.478Z,2.60
2019-02-18T05:27:11.397Z,2.70
2019-02-18T05:32:30.949Z,1.87
2019-02-18T05:37:50.079Z,1.90
2019-02-18T05:43:09.306Z,1.90
2019-02-18T05:48:29.398Z,1.83
2019-02-18T05:53:48.710Z,1.80
2019-02-18T05:59:08.409Z,4.33
2019-02-18T06:04:28.099Z,4.20
2019-02-18T06:09:48.709Z,2.73
2019-02-18T06:15:08.651Z,4.17
2019-02-18T06:20:28.268Z,4.10
2019-02-18T06:25:47.609Z,6.40
2019-02-18T06:31:07.191Z,4.43
2019-02-18T06:36:26.224Z,3.00
2019-02-18T06:41:46.041Z,2.63
2019-02-18T06:47:12.862Z,2.57
2019-02-18T06:52:32.722Z,2.40
2019-02-18T06:58:16.891Z,3.80
2019-02-18T07:03:49.171Z,6.83
2019-02-18T07:09:29.125Z,7.17
2019-02-18T07:14:48.271Z,5.47
2019-02-18T07:20:09.197Z,7.67
2019-02-18T07:25:29.034Z,6.27
2019-02-18T07:30:48.901Z,9.83
2019-02-18T07:36:08.401Z,4.13
2019-02-18T07:41:27.457Z,3.13
2019-02-18T07:46:47.692Z,3.27
2019-02-18T07:52:06.925Z,4.70
2019-02-18T07:57:26.208Z,3.07
2019-02-18T08:02:45.451Z,4.07
2019-02-18T08:08:04.678Z,2.73
2019-02-18T08:13:26.718Z,2.87
2019-02-18T08:18:44.615Z,2.77
2019-02-18T08:24:03.620Z,3.00
2019-02-18T08:29:23.200Z,2.57
2019-02-18T08:34:43.124Z,3.17
2019-02-18T08:40:02.670Z,2.90
2019-02-18T08:45:22.041Z,2.53
2019-02-18T08:50:42.399Z,2.60
2019-02-18T08:56:02.561Z,2.43
2019-02-18T09:01:22.072Z,3.20
2019-02-18T09:06:42.543Z,2.70
2019-02-18T09:12:01.721Z,3.43
2019-02-18T09:17:21.240Z,3.37
2019-02-18T09:22:51.895Z,3.40
2019-02-18T09:28:10.984Z,4.03
2019-02-18T09:33:30.082Z,3.13
2019-02-18T09:38:49.460Z,3.00
2019-02-18T09:44:08.633Z,3.60
2019-02-18T09:49:27.993Z,2.87
2019-02-18T09:54:47.202Z,3.70
2019-02-18T10:00:06.448Z,3.63
2019-02-18T10:05:26.005Z,4.53
2019-02-18T10:10:55.341Z,4.77
2019-02-18T10:16:04.959Z,4.90
2019-02-18T10:21:24.463Z,4.80
2019-02-18T10:26:43.725Z,4.67
2019-02-18T10:32:03.617Z,4.50
2019-02-18T10:37:24.110Z,4.73
2019-02-18T10:42:43.524Z,4.20
2019-02-18T10:48:03.996Z,4.67
2019-02-18T10:53:23.710Z,5.23
2019-02-18T10:58:43.044Z,4.27
2019-02-18T11:04:02.853Z,5.60
2019-02-18T11:09:22.048Z,5.07
2019-02-18T11:14:42.304Z,4.90
2019-02-18T11:20:01.905Z,5.20
2019-02-18T11:25:22.019Z,4.40
2019-02-18T11:30:41.347Z,5.40
2019-02-18T11:36:00.777Z,4.90
2019-02-18T11:41:27.089Z,5.67
2019-02-18T11:46:40.675Z,5.93
2019-02-18T11:52:00.218Z,5.03
2019-02-18T11:57:20.767Z,6.27
2019-02-18T12:02:39.807Z,4.83
2019-02-18T12:07:59.240Z,5.30
2019-02-18T12:13:18.380Z,7.07
2019-02-18T12:18:38.947Z,6.60
2019-02-18T12:23:58.157Z,5.90
2019-02-18T12:29:26.262Z,7.20
2019-02-18T12:34:37.307Z,7.07
2019-02-18T12:39:56.714Z,7.40
2019-02-18T12:45:16.494Z,8.60
2019-02-18T12:50:36.170Z,8.80
2019-02-18T12:55:56.318Z,9.47
2019-02-18T13:01:15.363Z,8.60
2019-02-18T13:06:34.614Z,7.70
2019-02-18T13:11:59.099Z,9.93
2019-02-18T13:17:15.180Z,18.20
2019-02-18T13:22:34.604Z,14.37
2019-02-18T13:27:53.959Z,12.53
2019-02-18T13:33:13.234Z,20.33
2019-02-18T13:38:33.184Z,13.33
2019-02-18T13:43:52.640Z,17.37
2019-02-18T13:49:12.040Z,15.37
2019-02-18T13:54:31.669Z,13.83
2019-02-18T13:59:51.235Z,12.40
2019-02-18T14:05:10.567Z,12.70
2019-02-18T14:10:30.014Z,12.27
2019-02-18T14:15:50.340Z,12.30
2019-02-18T14:21:09.783Z,13.80
2019-02-18T14:26:28.948Z,15.83
2019-02-18T14:31:49.199Z,17.37
2019-02-18T14:37:08.991Z,19.17
2019-02-18T14:42:29.187Z,20.97
2019-02-18T14:47:49.364Z,22.97
2019-02-18T14:53:08.739Z,24.13
2019-02-18T14:58:28.400Z,25.63
2019-02-18T15:03:47.708Z,23.80
2019-02-18T15:09:07.285Z,25.10
2019-02-18T15:14:26.644Z,24.20
2019-02-18T15:19:46.007Z,24.63
2019-02-18T15:25:05.898Z,27.63
2019-02-18T15:30:26.184Z,35.07
2019-02-18T15:35:46.122Z,37.60
2019-02-18T15:41:05.647Z,36.43
2019-02-18T15:46:24.699Z,35.47
2019-02-18T15:51:44.229Z,36.30
2019-02-18T15:57:03.975Z,33.27
2019-02-18T16:02:24.397Z,32.50
2019-02-18T16:07:44.100Z,35.20
2019-02-18T16:13:04.417Z,36.73
2019-02-18T16:18:23.578Z,37.23
2019-02-18T16:23:43.342Z,37.60
2019-02-18T16:29:03.521Z,44.93
2019-02-18T16:34:25.230Z,76.47
2019-02-18T16:39:44.809Z,60.67
2019-02-18T16:45:05.623Z,59.20
2019-02-18T16:50:25.182Z,54.13
2019-02-18T16:55:45.137Z,50.47
2019-02-18T17:01:04.722Z,51.13
2019-02-18T17:06:24.061Z,64.23
2019-02-18T17:11:43.825Z,59.67
2019-02-18T17:17:03.058Z,52.00
2019-02-18T17:22:22.800Z,53.03
2019-02-18T17:27:42.524Z,63.90
2019-02-18T17:33:02.831Z,54.67
2019-02-18T17:38:23.882Z,73.50
2019-02-18T17:43:44.079Z,41.20
2019-02-18T17:49:04.716Z,38.20
2019-02-18T17:54:24.581Z,60.73
2019-02-18T17:59:43.977Z,120.17
2019-02-18T18:05:04.422Z,113.13
2019-02-18T18:10:24.593Z,55.97
2019-02-18T18:15:45.039Z,51.23
2019-02-18T18:21:05.342Z,45.63
2019-02-18T18:26:25.362Z,46.83
2019-02-18T18:31:46.062Z,47.27
2019-02-18T18:37:06.542Z,46.23
2019-02-18T18:42:26.311Z,49.37
2019-02-18T18:47:46.519Z,55.90
2019-02-18T18:53:06.276Z,83.97
2019-02-18T18:58:27.025Z,49.43
2019-02-18T19:03:47.161Z,46.53
2019-02-18T19:09:07.122Z,84.33
2019-02-18T19:14:26.819Z,100.93
2019-02-18T19:19:47.440Z,47.80
2019-02-18T19:25:07.070Z,42.30
2019-02-18T19:30:28.606Z,85.03
2019-02-18T19:35:48.144Z,57.60
2019-02-18T19:41:08.488Z,49.50
2019-02-18T19:46:28.728Z,76.53
2019-02-18T19:51:49.184Z,87.53
2019-02-18T19:57:09.835Z,55.53
2019-02-18T20:02:31.144Z,92.67
2019-02-18T20:07:50.779Z,83.60
2019-02-18T20:13:11.293Z,65.97
2019-02-18T20:18:30.702Z,170.00
2019-02-18T20:23:51.036Z,181.83
2019-02-18T20:29:11.331Z,63.70
2019-02-18T20:34:31.192Z,59.30
2019-02-18T20:39:51.512Z,62.00
2019-02-18T20:45:11.295Z,59.60
2019-02-18T20:50:31.814Z,63.73
2019-02-18T20:55:51.533Z,63.57
2019-02-18T21:01:13.556Z,47.90
2019-02-18T21:06:33.517Z,99.77
2019-02-18T21:11:54.892Z,54.33
2019-02-18T21:17:15.543Z,63.93
2019-02-18T21:22:35.259Z,56.83
2019-02-18T21:27:55.391Z,52.77
2019-02-18T21:33:17.953Z,50.10
2019-02-18T21:38:36.917Z,49.13
2019-02-18T21:43:56.189Z,53.23
2019-02-18T21:49:17.279Z,53.67
2019-02-18T21:54:36.682Z,44.47
2019-02-18T21:59:56.951Z,52.30
2019-02-18T22:05:16.654Z,161.77
2019-02-18T22:10:38.609Z,55.90
2019-02-18T22:15:58.210Z,118.90
2019-02-18T22:21:18.732Z,55.93
2019-02-18T22:26:38.629Z,173.37
2019-02-18T22:31:58.646Z,94.13
2019-02-18T22:37:19.468Z,57.83
2019-02-18T22:42:39.723Z,106.63
2019-02-18T22:48:00.325Z,76.13
2019-02-18T22:53:20.317Z,68.70
2019-02-18T22:58:39.667Z,53.27
2019-02-18T23:03:59.099Z,74.63
2019-02-18T23:09:18.208Z,182.77
2019-02-18T23:14:37.593Z,59.30
2019-02-18T23:19:56.853Z,84.20
2019-02-18T23:25:15.994Z,239.43
2019-02-18T23:30:35.894Z,177.13
2019-02-18T23:35:56.382Z,129.27
2019-02-18T23:41:15.975Z,64.23
2019-02-18T23:46:35.759Z,70.67
2019-02-18T23:51:55.224Z,69.80
2019-02-18T23:57:15.062Z,87.57
